FDX1518 MUHA-MHLM
Flight info
| Callsign | FDX1518 |
|---|---|
| Flight time | 1h 19m |
| Altitude | 36000 |
| Route | PABEL UL471 DENOM |
| Aircraft | B77L/H-SDE1E2E3FGHIJ2J3J4J5M1RWXY/LB1D1 |
Departure
| Time | 2026-04-26 18:02 |
|---|---|
| Airport | José Martí International Airport (MUHA) |
Arrival
| Time | 2026-04-26 19:22 |
|---|---|
| Airport | Ramón Villeda Morales International Airport (MHLM) |
| Time | Latitude | Longitude | Altitude | Speed | Heading |
|---|---|---|---|---|---|
| 2026-04-26 17:12 | 22.99869 | -82.40051 | 205 ft | 0 kts | 324° |
| 2026-04-26 17:53 | 22.99865 | -82.40047 | 205 ft | 1 kts | 324° |
| 2026-04-26 17:53 | 22.99860 | -82.40043 | 217 ft | 1 kts | 324° |
| 2026-04-26 17:53 | 22.99855 | -82.40039 | 205 ft | 1 kts | 323° |
| 2026-04-26 17:54 | 22.99845 | -82.40030 | 217 ft | 1 kts | 300° |
| 2026-04-26 17:54 | 22.99842 | -82.40023 | 217 ft | 2 kts | 287° |
| 2026-04-26 17:54 | 22.99839 | -82.40008 | 217 ft | 2 kts | 268° |
| 2026-04-26 17:54 | 22.99841 | -82.39994 | 213 ft | 2 kts | 242° |
| 2026-04-26 17:55 | 22.99841 | -82.39993 | 212 ft | 0 kts | 239° |
| 2026-04-26 17:56 | 22.99766 | -82.40075 | 214 ft | 15 kts | 198° |
| 2026-04-26 17:57 | 22.99588 | -82.40215 | 213 ft | 19 kts | 234° |
| 2026-04-26 17:57 | 22.99490 | -82.40363 | 211 ft | 26 kts | 234° |
| 2026-04-26 17:57 | 22.99387 | -82.40521 | 214 ft | 26 kts | 234° |
| 2026-04-26 17:57 | 22.99281 | -82.40680 | 210 ft | 26 kts | 234° |
| 2026-04-26 17:58 | 22.98966 | -82.41155 | 216 ft | 26 kts | 234° |
| 2026-04-26 17:59 | 22.98756 | -82.41470 | 214 ft | 26 kts | 233° |
| 2026-04-26 17:59 | 22.98650 | -82.41629 | 216 ft | 26 kts | 234° |
| 2026-04-26 17:59 | 22.98546 | -82.41786 | 209 ft | 26 kts | 234° |
| 2026-04-26 17:59 | 22.98440 | -82.41945 | 211 ft | 26 kts | 234° |
| 2026-04-26 18:00 | 22.98371 | -82.42049 | 215 ft | 26 kts | 234° |
| 2026-04-26 18:00 | 22.98232 | -82.42260 | 212 ft | 26 kts | 234° |
| 2026-04-26 18:00 | 22.98127 | -82.42418 | 209 ft | 26 kts | 234° |
| 2026-04-26 18:00 | 22.98051 | -82.42530 | 209 ft | 16 kts | 229° |
| 2026-04-26 18:01 | 22.97972 | -82.42554 | 214 ft | 9 kts | 157° |
| 2026-04-26 18:01 | 22.97966 | -82.42549 | 213 ft | 0 kts | 149° |
| 2026-04-26 18:01 | 22.97952 | -82.42540 | 211 ft | 8 kts | 146° |
| 2026-04-26 18:02 | 22.97904 | -82.42467 | 213 ft | 15 kts | 88° |
| 2026-04-26 18:02 | 22.97932 | -82.42392 | 211 ft | 16 kts | 57° |
| 2026-04-26 18:02 | 22.98233 | -82.41942 | 215 ft | 137 kts | 54° |
| 2026-04-26 18:02 | 22.98988 | -82.40812 | 950 ft | 196 kts | 54° |
| 2026-04-26 18:03 | 22.99785 | -82.39613 | 2682 ft | 203 kts | 55° |
| 2026-04-26 18:03 | 23.00684 | -82.38266 | 3401 ft | 238 kts | 54° |
| 2026-04-26 18:03 | 23.01721 | -82.36710 | 4169 ft | 267 kts | 54° |
| 2026-04-26 18:03 | 23.02815 | -82.35059 | 5517 ft | 272 kts | 54° |
| 2026-04-26 18:04 | 23.03909 | -82.33367 | 7006 ft | 273 kts | 54° |
| 2026-04-26 18:04 | 23.04860 | -82.31588 | 8235 ft | 280 kts | 70° |
| 2026-04-26 18:04 | 23.05020 | -82.29444 | 9470 ft | 293 kts | 96° |
| 2026-04-26 18:05 | 23.02986 | -82.25422 | 11266 ft | 337 kts | 137° |
| 2026-04-26 18:05 | 23.00889 | -82.23998 | 11638 ft | 374 kts | 160° |
| 2026-04-26 18:05 | 22.98299 | -82.23500 | 12493 ft | 388 kts | 182° |
| 2026-04-26 18:05 | 22.95634 | -82.23995 | 13732 ft | 389 kts | 202° |
| 2026-04-26 18:06 | 22.93220 | -82.25284 | 14916 ft | 389 kts | 214° |
| 2026-04-26 18:06 | 22.90952 | -82.26928 | 16079 ft | 393 kts | 219° |
| 2026-04-26 18:06 | 22.88706 | -82.28692 | 17197 ft | 400 kts | 219° |
| 2026-04-26 18:06 | 22.86472 | -82.30466 | 18246 ft | 403 kts | 221° |
| 2026-04-26 18:07 | 22.84344 | -82.32518 | 19051 ft | 410 kts | 227° |
| 2026-04-26 18:07 | 22.82284 | -82.34661 | 19927 ft | 418 kts | 226° |
| 2026-04-26 18:07 | 22.80085 | -82.36781 | 20873 ft | 424 kts | 224° |
| 2026-04-26 18:07 | 22.78547 | -82.38133 | 21523 ft | 427 kts | 221° |
| 2026-04-26 18:08 | 22.75343 | -82.40683 | 22749 ft | 436 kts | 219° |
| 2026-04-26 18:08 | 22.72790 | -82.42549 | 23583 ft | 443 kts | 217° |
| 2026-04-26 18:08 | 22.70200 | -82.44362 | 24316 ft | 449 kts | 217° |
| 2026-04-26 18:08 | 22.67539 | -82.46181 | 25117 ft | 452 kts | 216° |
| 2026-04-26 18:09 | 22.64878 | -82.47982 | 25929 ft | 456 kts | 216° |
| 2026-04-26 18:09 | 22.62162 | -82.49819 | 26725 ft | 460 kts | 216° |
| 2026-04-26 18:09 | 22.59424 | -82.51673 | 27458 ft | 465 kts | 217° |
| 2026-04-26 18:09 | 22.56689 | -82.53531 | 28167 ft | 470 kts | 217° |
| 2026-04-26 18:10 | 22.53899 | -82.55428 | 28902 ft | 474 kts | 217° |
| 2026-04-26 18:10 | 22.51087 | -82.57342 | 29641 ft | 478 kts | 217° |
| 2026-04-26 18:10 | 22.48272 | -82.59260 | 30293 ft | 482 kts | 217° |
| 2026-04-26 18:10 | 22.45411 | -82.61208 | 30931 ft | 483 kts | 217° |
| 2026-04-26 18:11 | 22.42605 | -82.63115 | 31776 ft | 479 kts | 217° |
| 2026-04-26 18:11 | 22.39792 | -82.65023 | 32781 ft | 471 kts | 217° |
| 2026-04-26 18:11 | 22.37022 | -82.66902 | 33772 ft | 464 kts | 217° |
| 2026-04-26 18:11 | 22.34329 | -82.68730 | 34512 ft | 460 kts | 217° |
| 2026-04-26 18:12 | 22.31602 | -82.70583 | 35079 ft | 461 kts | 217° |
| 2026-04-26 18:12 | 22.28916 | -82.72411 | 35577 ft | 461 kts | 217° |
| 2026-04-26 18:12 | 22.26180 | -82.74270 | 35973 ft | 462 kts | 217° |
| 2026-04-26 18:13 | 22.20640 | -82.78039 | 35968 ft | 480 kts | 217° |
| 2026-04-26 18:13 | 22.14941 | -82.81906 | 35962 ft | 489 kts | 217° |
| 2026-04-26 18:14 | 22.09165 | -82.85807 | 35955 ft | 486 kts | 217° |
| 2026-04-26 18:14 | 22.03460 | -82.89660 | 35957 ft | 485 kts | 217° |
| 2026-04-26 18:15 | 21.97762 | -82.93509 | 35930 ft | 484 kts | 217° |
| 2026-04-26 18:15 | 21.92041 | -82.97371 | 35949 ft | 483 kts | 217° |
| 2026-04-26 18:16 | 21.86359 | -83.01204 | 35958 ft | 483 kts | 217° |
| 2026-04-26 18:16 | 21.77809 | -83.06963 | 35954 ft | 484 kts | 217° |
| 2026-04-26 18:17 | 21.72100 | -83.10803 | 35953 ft | 485 kts | 217° |
| 2026-04-26 18:17 | 21.66387 | -83.14643 | 35954 ft | 485 kts | 217° |
| 2026-04-26 18:18 | 21.60679 | -83.18476 | 35945 ft | 486 kts | 216° |
| 2026-04-26 18:18 | 21.54909 | -83.22347 | 35962 ft | 487 kts | 216° |
| 2026-04-26 18:19 | 21.49178 | -83.26188 | 35950 ft | 487 kts | 216° |
| 2026-04-26 18:19 | 21.43400 | -83.30057 | 35949 ft | 488 kts | 216° |
| 2026-04-26 18:20 | 21.37660 | -83.33896 | 35954 ft | 488 kts | 216° |
| 2026-04-26 18:20 | 21.33795 | -83.36479 | 35953 ft | 488 kts | 216° |
| 2026-04-26 18:21 | 21.26138 | -83.41592 | 35953 ft | 488 kts | 216° |
| 2026-04-26 18:21 | 21.20350 | -83.45453 | 35952 ft | 488 kts | 216° |
| 2026-04-26 18:22 | 21.14629 | -83.49266 | 35953 ft | 488 kts | 216° |
| 2026-04-26 18:22 | 21.08855 | -83.53110 | 35953 ft | 487 kts | 216° |
| 2026-04-26 18:23 | 21.03107 | -83.56934 | 35954 ft | 488 kts | 216° |
| 2026-04-26 18:23 | 20.97319 | -83.60781 | 35947 ft | 489 kts | 216° |
| 2026-04-26 18:24 | 20.91510 | -83.64638 | 35951 ft | 490 kts | 216° |
| 2026-04-26 18:24 | 20.85729 | -83.68473 | 35949 ft | 491 kts | 216° |
| 2026-04-26 18:25 | 20.79932 | -83.72315 | 35951 ft | 491 kts | 216° |
| 2026-04-26 18:25 | 20.74116 | -83.76167 | 35947 ft | 491 kts | 216° |
| 2026-04-26 18:26 | 20.68329 | -83.79995 | 35928 ft | 491 kts | 216° |
| 2026-04-26 18:26 | 20.62496 | -83.83851 | 35938 ft | 491 kts | 215° |
| 2026-04-26 18:27 | 20.56707 | -83.87674 | 35946 ft | 491 kts | 215° |
| 2026-04-26 18:27 | 20.50888 | -83.91515 | 35940 ft | 491 kts | 215° |
| 2026-04-26 18:28 | 20.45105 | -83.95353 | 35943 ft | 491 kts | 217° |
| 2026-04-26 18:28 | 20.39572 | -83.99600 | 35948 ft | 489 kts | 220° |
| 2026-04-26 18:29 | 20.34127 | -84.03906 | 35938 ft | 490 kts | 220° |
| 2026-04-26 18:29 | 20.28634 | -84.08231 | 35942 ft | 490 kts | 220° |
| 2026-04-26 18:30 | 20.23116 | -84.12550 | 35945 ft | 491 kts | 219° |
| 2026-04-26 18:30 | 20.17616 | -84.16841 | 35945 ft | 491 kts | 219° |
| 2026-04-26 18:31 | 20.12126 | -84.21119 | 35943 ft | 491 kts | 219° |
| 2026-04-26 18:31 | 20.06603 | -84.25421 | 35937 ft | 491 kts | 219° |
| 2026-04-26 18:32 | 20.01126 | -84.29685 | 35926 ft | 490 kts | 219° |
| 2026-04-26 18:32 | 19.96527 | -84.33261 | 35934 ft | 491 kts | 219° |
| 2026-04-26 18:33 | 19.91021 | -84.37540 | 35942 ft | 492 kts | 219° |
| 2026-04-26 18:33 | 19.84576 | -84.42544 | 35936 ft | 492 kts | 219° |
| 2026-04-26 18:34 | 19.79955 | -84.46129 | 35937 ft | 493 kts | 219° |
| 2026-04-26 18:34 | 19.74431 | -84.50410 | 35935 ft | 493 kts | 219° |
| 2026-04-26 18:35 | 19.68862 | -84.54722 | 35931 ft | 492 kts | 219° |
| 2026-04-26 18:35 | 19.63351 | -84.58986 | 35932 ft | 492 kts | 219° |
| 2026-04-26 18:36 | 19.57812 | -84.63268 | 35934 ft | 492 kts | 219° |
| 2026-04-26 18:36 | 19.52290 | -84.67533 | 35926 ft | 492 kts | 219° |
| 2026-04-26 18:37 | 19.46738 | -84.71818 | 35933 ft | 493 kts | 219° |
| 2026-04-26 18:37 | 19.41200 | -84.76087 | 35926 ft | 494 kts | 219° |
| 2026-04-26 18:38 | 19.35647 | -84.80365 | 35922 ft | 494 kts | 219° |
| 2026-04-26 18:38 | 19.30072 | -84.84656 | 35936 ft | 495 kts | 219° |
| 2026-04-26 18:39 | 19.24512 | -84.88932 | 35936 ft | 495 kts | 219° |
| 2026-04-26 18:39 | 19.18919 | -84.93230 | 35921 ft | 495 kts | 219° |
| 2026-04-26 18:40 | 19.13353 | -84.97503 | 35920 ft | 495 kts | 219° |
| 2026-04-26 18:40 | 19.07797 | -85.01764 | 35936 ft | 495 kts | 219° |
| 2026-04-26 18:41 | 19.02194 | -85.06059 | 35922 ft | 495 kts | 219° |
| 2026-04-26 18:41 | 18.96648 | -85.10306 | 35925 ft | 496 kts | 219° |
| 2026-04-26 18:42 | 18.91032 | -85.14603 | 35918 ft | 496 kts | 219° |
| 2026-04-26 18:42 | 18.85449 | -85.18871 | 35918 ft | 496 kts | 219° |
| 2026-04-26 18:43 | 18.79874 | -85.23129 | 35921 ft | 496 kts | 219° |
| 2026-04-26 18:43 | 18.74255 | -85.27417 | 35923 ft | 496 kts | 219° |
| 2026-04-26 18:44 | 18.68673 | -85.31674 | 35909 ft | 496 kts | 219° |
| 2026-04-26 18:44 | 18.63054 | -85.35955 | 35915 ft | 496 kts | 219° |
| 2026-04-26 18:45 | 18.57472 | -85.40204 | 35915 ft | 496 kts | 219° |
| 2026-04-26 18:45 | 18.51850 | -85.44481 | 35910 ft | 497 kts | 219° |
| 2026-04-26 18:46 | 18.46263 | -85.48728 | 35914 ft | 497 kts | 219° |
| 2026-04-26 18:46 | 18.40654 | -85.52987 | 35913 ft | 497 kts | 219° |
| 2026-04-26 18:47 | 18.35025 | -85.57258 | 35898 ft | 497 kts | 219° |
| 2026-04-26 18:47 | 18.29436 | -85.61495 | 35903 ft | 497 kts | 219° |
| 2026-04-26 18:48 | 18.23806 | -85.65760 | 35902 ft | 497 kts | 219° |
| 2026-04-26 18:48 | 18.18195 | -85.70007 | 35905 ft | 498 kts | 219° |
| 2026-04-26 18:49 | 18.12559 | -85.74270 | 35905 ft | 498 kts | 219° |
| 2026-04-26 18:49 | 18.06942 | -85.78515 | 35903 ft | 498 kts | 218° |
| 2026-04-26 18:50 | 18.01310 | -85.82768 | 35903 ft | 497 kts | 218° |
| 2026-04-26 18:50 | 17.95696 | -85.87003 | 35899 ft | 497 kts | 218° |
| 2026-04-26 18:51 | 17.90081 | -85.91236 | 35896 ft | 497 kts | 218° |
| 2026-04-26 18:51 | 17.84465 | -85.95466 | 35897 ft | 497 kts | 218° |
| 2026-04-26 18:52 | 17.79764 | -85.99005 | 35896 ft | 497 kts | 218° |
| 2026-04-26 18:52 | 17.73195 | -86.03946 | 35893 ft | 497 kts | 218° |
| 2026-04-26 18:53 | 17.67585 | -86.08162 | 35884 ft | 497 kts | 218° |
| 2026-04-26 18:53 | 17.61973 | -86.12377 | 35897 ft | 497 kts | 218° |
| 2026-04-26 18:54 | 17.56347 | -86.16598 | 35887 ft | 498 kts | 218° |
| 2026-04-26 18:54 | 17.50705 | -86.20828 | 35882 ft | 498 kts | 218° |
| 2026-04-26 18:55 | 17.45052 | -86.25064 | 35888 ft | 498 kts | 218° |
| 2026-04-26 18:55 | 17.39425 | -86.29276 | 35886 ft | 498 kts | 218° |
| 2026-04-26 18:56 | 17.33800 | -86.33484 | 35877 ft | 498 kts | 219° |
| 2026-04-26 18:56 | 17.28130 | -86.37723 | 35884 ft | 499 kts | 218° |
| 2026-04-26 18:57 | 17.23454 | -86.41217 | 35878 ft | 499 kts | 218° |
| 2026-04-26 18:57 | 17.16832 | -86.46158 | 35880 ft | 499 kts | 218° |
| 2026-04-26 18:58 | 17.11183 | -86.50367 | 35877 ft | 499 kts | 218° |
| 2026-04-26 18:58 | 17.05552 | -86.54562 | 35877 ft | 499 kts | 218° |
| 2026-04-26 18:59 | 16.99871 | -86.58792 | 35867 ft | 499 kts | 219° |
| 2026-04-26 18:59 | 16.94219 | -86.62997 | 35877 ft | 498 kts | 219° |
| 2026-04-26 19:00 | 16.91414 | -86.65080 | 35863 ft | 485 kts | 219° |
| 2026-04-26 19:00 | 16.88708 | -86.67088 | 35197 ft | 483 kts | 219° |
| 2026-04-26 19:00 | 16.85955 | -86.69135 | 34367 ft | 483 kts | 219° |
| 2026-04-26 19:00 | 16.83209 | -86.71177 | 33372 ft | 484 kts | 219° |
| 2026-04-26 19:01 | 16.80485 | -86.73202 | 32339 ft | 485 kts | 219° |
| 2026-04-26 19:01 | 16.77716 | -86.75258 | 31498 ft | 483 kts | 219° |
| 2026-04-26 19:01 | 16.75024 | -86.77254 | 30818 ft | 477 kts | 219° |
| 2026-04-26 19:01 | 16.72301 | -86.79272 | 30116 ft | 472 kts | 219° |
| 2026-04-26 19:02 | 16.69659 | -86.81230 | 29356 ft | 468 kts | 219° |
| 2026-04-26 19:02 | 16.67014 | -86.83189 | 28597 ft | 462 kts | 219° |
| 2026-04-26 19:02 | 16.64395 | -86.85130 | 27907 ft | 456 kts | 219° |
| 2026-04-26 19:02 | 16.62685 | -86.86396 | 27469 ft | 452 kts | 219° |
| 2026-04-26 19:03 | 16.59295 | -86.88906 | 26604 ft | 445 kts | 218° |
| 2026-04-26 19:03 | 16.56798 | -86.90755 | 25976 ft | 441 kts | 218° |
| 2026-04-26 19:03 | 16.54308 | -86.92599 | 25355 ft | 436 kts | 218° |
| 2026-04-26 19:03 | 16.51825 | -86.94436 | 24730 ft | 433 kts | 218° |
| 2026-04-26 19:04 | 16.49364 | -86.96257 | 24101 ft | 430 kts | 218° |
| 2026-04-26 19:04 | 16.46959 | -86.98035 | 23498 ft | 427 kts | 217° |
| 2026-04-26 19:04 | 16.44536 | -86.99827 | 22792 ft | 424 kts | 217° |
| 2026-04-26 19:04 | 16.42139 | -87.01597 | 22167 ft | 420 kts | 217° |
| 2026-04-26 19:05 | 16.37408 | -87.05090 | 20995 ft | 413 kts | 217° |
| 2026-04-26 19:05 | 16.35069 | -87.06817 | 20425 ft | 410 kts | 217° |
| 2026-04-26 19:05 | 16.32765 | -87.08518 | 19854 ft | 407 kts | 217° |
| 2026-04-26 19:06 | 16.30455 | -87.10223 | 19284 ft | 405 kts | 217° |
| 2026-04-26 19:06 | 16.28171 | -87.11907 | 18726 ft | 403 kts | 217° |
| 2026-04-26 19:06 | 16.25867 | -87.13606 | 18141 ft | 402 kts | 217° |
| 2026-04-26 19:06 | 16.23587 | -87.15287 | 17502 ft | 400 kts | 217° |
| 2026-04-26 19:07 | 16.21347 | -87.16939 | 16918 ft | 397 kts | 217° |
| 2026-04-26 19:07 | 16.19083 | -87.18606 | 16353 ft | 393 kts | 216° |
| 2026-04-26 19:07 | 16.16880 | -87.20229 | 15801 ft | 389 kts | 216° |
| 2026-04-26 19:07 | 16.14674 | -87.21853 | 15251 ft | 386 kts | 216° |
| 2026-04-26 19:08 | 16.12480 | -87.23468 | 14734 ft | 382 kts | 216° |
| 2026-04-26 19:08 | 16.10324 | -87.25054 | 14251 ft | 377 kts | 216° |
| 2026-04-26 19:08 | 16.08214 | -87.26607 | 13750 ft | 373 kts | 216° |
| 2026-04-26 19:08 | 16.06104 | -87.28159 | 13163 ft | 371 kts | 216° |
| 2026-04-26 19:09 | 16.04000 | -87.29705 | 12619 ft | 367 kts | 216° |
| 2026-04-26 19:09 | 16.01922 | -87.31233 | 12083 ft | 364 kts | 216° |
| 2026-04-26 19:09 | 15.99855 | -87.32752 | 11691 ft | 357 kts | 216° |
| 2026-04-26 19:09 | 15.97887 | -87.34198 | 11533 ft | 342 kts | 216° |
| 2026-04-26 19:10 | 15.95963 | -87.35613 | 11383 ft | 329 kts | 216° |
| 2026-04-26 19:10 | 15.94149 | -87.36945 | 11238 ft | 317 kts | 216° |
| 2026-04-26 19:10 | 15.92380 | -87.38243 | 11123 ft | 304 kts | 216° |
| 2026-04-26 19:10 | 15.90694 | -87.39488 | 10926 ft | 294 kts | 218° |
| 2026-04-26 19:11 | 15.89254 | -87.40950 | 10632 ft | 287 kts | 231° |
| 2026-04-26 19:11 | 15.88009 | -87.42592 | 10339 ft | 291 kts | 234° |
| 2026-04-26 19:11 | 15.86793 | -87.44285 | 10035 ft | 298 kts | 235° |
| 2026-04-26 19:11 | 15.85541 | -87.46028 | 9686 ft | 300 kts | 235° |
| 2026-04-26 19:12 | 15.84303 | -87.47730 | 9328 ft | 296 kts | 234° |
| 2026-04-26 19:12 | 15.83063 | -87.49418 | 8991 ft | 292 kts | 234° |
| 2026-04-26 19:12 | 15.81832 | -87.51080 | 8678 ft | 288 kts | 233° |
| 2026-04-26 19:12 | 15.80612 | -87.52718 | 8343 ft | 283 kts | 233° |
| 2026-04-26 19:13 | 15.79424 | -87.54307 | 8043 ft | 279 kts | 233° |
| 2026-04-26 19:13 | 15.78636 | -87.55360 | 7836 ft | 277 kts | 233° |
| 2026-04-26 19:13 | 15.77454 | -87.56938 | 7543 ft | 277 kts | 232° |
| 2026-04-26 19:13 | 15.76260 | -87.58529 | 7223 ft | 281 kts | 232° |
| 2026-04-26 19:14 | 15.75048 | -87.60142 | 6934 ft | 284 kts | 231° |
| 2026-04-26 19:14 | 15.73827 | -87.61767 | 6622 ft | 284 kts | 231° |
| 2026-04-26 19:14 | 15.72628 | -87.63362 | 6297 ft | 280 kts | 231° |
| 2026-04-26 19:14 | 15.71834 | -87.64418 | 6074 ft | 278 kts | 231° |
| 2026-04-26 19:15 | 15.70277 | -87.66490 | 5867 ft | 261 kts | 230° |
| 2026-04-26 19:15 | 15.69200 | -87.67922 | 5887 ft | 239 kts | 230° |
| 2026-04-26 19:15 | 15.68205 | -87.69243 | 5790 ft | 237 kts | 231° |
| 2026-04-26 19:15 | 15.67203 | -87.70576 | 5463 ft | 230 kts | 230° |
| 2026-04-26 19:16 | 15.66224 | -87.71876 | 5199 ft | 226 kts | 230° |
| 2026-04-26 19:16 | 15.65268 | -87.73146 | 4958 ft | 220 kts | 230° |
| 2026-04-26 19:16 | 15.64346 | -87.74371 | 4707 ft | 212 kts | 230° |
| 2026-04-26 19:16 | 15.63445 | -87.75565 | 4471 ft | 214 kts | 230° |
| 2026-04-26 19:17 | 15.62537 | -87.76768 | 4276 ft | 212 kts | 232° |
| 2026-04-26 19:17 | 15.61644 | -87.77952 | 3996 ft | 204 kts | 231° |
| 2026-04-26 19:17 | 15.60658 | -87.78984 | 3719 ft | 201 kts | 220° |
| 2026-04-26 19:17 | 15.59568 | -87.79900 | 3433 ft | 202 kts | 218° |
| 2026-04-26 19:18 | 15.58478 | -87.80788 | 3174 ft | 200 kts | 220° |
| 2026-04-26 19:18 | 15.57407 | -87.81708 | 2911 ft | 199 kts | 221° |
| 2026-04-26 19:18 | 15.56352 | -87.82632 | 2636 ft | 197 kts | 220° |
| 2026-04-26 19:18 | 15.55340 | -87.83521 | 2364 ft | 186 kts | 220° |
| 2026-04-26 19:19 | 15.54389 | -87.84354 | 2139 ft | 174 kts | 220° |
| 2026-04-26 19:19 | 15.53476 | -87.85157 | 1927 ft | 170 kts | 221° |
| 2026-04-26 19:19 | 15.52607 | -87.85919 | 1680 ft | 155 kts | 222° |
| 2026-04-26 19:19 | 15.51786 | -87.86636 | 1531 ft | 156 kts | 222° |
| 2026-04-26 19:20 | 15.50949 | -87.87376 | 1317 ft | 157 kts | 220° |
| 2026-04-26 19:20 | 15.50396 | -87.87863 | 1189 ft | 157 kts | 220° |
| 2026-04-26 19:20 | 15.49305 | -87.88814 | 929 ft | 150 kts | 221° |
| 2026-04-26 19:20 | 15.48518 | -87.89508 | 733 ft | 145 kts | 220° |
| 2026-04-26 19:21 | 15.47748 | -87.90183 | 533 ft | 147 kts | 220° |
| 2026-04-26 19:21 | 15.46959 | -87.90875 | 365 ft | 152 kts | 220° |
| 2026-04-26 19:21 | 15.46139 | -87.91595 | 141 ft | 154 kts | 220° |
| 2026-04-26 19:21 | 15.45367 | -87.92272 | 100 ft | 131 kts | 220° |
| 2026-04-26 19:22 | 15.44834 | -87.92730 | 98 ft | 63 kts | 220° |
| 2026-04-26 19:22 | 15.44563 | -87.92969 | 100 ft | 31 kts | 221° |
| 2026-04-26 19:22 | 15.44533 | -87.93066 | 100 ft | 0 kts | 297° |
| 2026-04-26 19:23 | 15.44535 | -87.93069 | 100 ft | 2 kts | 299° |
| 2026-04-26 19:23 | 15.44556 | -87.93094 | 101 ft | 7 kts | 330° |
| 2026-04-26 19:23 | 15.44608 | -87.93088 | 99 ft | 10 kts | 26° |
| 2026-04-26 19:23 | 15.44724 | -87.92992 | 99 ft | 25 kts | 40° |
| 2026-04-26 19:24 | 15.44859 | -87.92873 | 98 ft | 26 kts | 40° |
| 2026-04-26 19:24 | 15.44994 | -87.92755 | 99 ft | 26 kts | 40° |
| 2026-04-26 19:24 | 15.45237 | -87.92545 | 99 ft | 14 kts | 32° |
| 2026-04-26 19:25 | 15.45317 | -87.92569 | 100 ft | 14 kts | 316° |
| 2026-04-26 19:25 | 15.45345 | -87.92600 | 99 ft | 8 kts | 313° |
| 2026-04-26 19:25 | 15.45413 | -87.92636 | 99 ft | 10 kts | 11° |
| 2026-04-26 19:25 | 15.45449 | -87.92640 | 96 ft | 1 kts | 329° |
| 2026-04-26 19:26 | 15.45462 | -87.92651 | 99 ft | 3 kts | 331° |
| 2026-04-26 19:26 | 15.45468 | -87.92675 | 99 ft | 4 kts | 253° |
| 2026-04-26 19:26 | 15.45454 | -87.92680 | 99 ft | 0 kts | 174° |
| 2026-04-26 19:26 | 15.45450 | -87.92678 | 99 ft | 1 kts | 154° |
| 2026-04-26 19:27 | 15.45450 | -87.92677 | 99 ft | 0 kts | 152° |